createdAt,value
2019-05-14T00:01:38.433Z,89.93
2019-05-14T00:04:05.206Z,90.57
2019-05-14T00:06:32.092Z,90.76
2019-05-14T00:08:58.943Z,90.67
2019-05-14T00:11:25.938Z,90.41
2019-05-14T00:13:52.741Z,91.23
2019-05-14T00:16:22.251Z,90.42
2019-05-14T00:18:48.274Z,88.25
2019-05-14T00:21:15.022Z,90.66
2019-05-14T00:23:42.153Z,89.96
2019-05-14T00:26:09.186Z,90.34
2019-05-14T00:28:36.133Z,91.21
2019-05-14T00:31:03.150Z,92.44
2019-05-14T00:33:31.591Z,92.77
2019-05-14T00:35:58.406Z,93.12
2019-05-14T00:38:25.664Z,93.72
2019-05-14T00:40:52.413Z,93.78
2019-05-14T00:43:21.508Z,93.78
2019-05-14T00:45:48.305Z,93.77
2019-05-14T00:48:15.166Z,94.23
2019-05-14T00:50:42.222Z,94.62
2019-05-14T00:53:11.682Z,95.07
2019-05-14T00:55:37.690Z,95.41
2019-05-14T00:58:05.657Z,96.10
2019-05-14T01:00:32.710Z,96.56
2019-05-14T01:03:01.920Z,96.54
2019-05-14T01:05:28.880Z,96.46
2019-05-14T01:07:55.640Z,96.56
2019-05-14T01:10:22.540Z,96.60
2019-05-14T01:12:51.894Z,96.61
2019-05-14T01:15:18.518Z,96.34
2019-05-14T01:17:45.293Z,96.30
2019-05-14T01:20:12.547Z,96.87
2019-05-14T01:22:42.053Z,97.00
2019-05-14T01:25:08.915Z,96.96
2019-05-14T01:27:35.781Z,97.15
2019-05-14T01:30:02.948Z,97.33
2019-05-14T01:32:31.499Z,97.37
2019-05-14T01:34:58.378Z,97.61
2019-05-14T01:37:25.137Z,97.21
2019-05-14T01:39:52.255Z,97.19
2019-05-14T01:42:21.475Z,97.02
2019-05-14T01:44:48.418Z,97.08
2019-05-14T01:47:15.189Z,97.42
2019-05-14T01:49:42.744Z,97.18
2019-05-14T01:52:11.295Z,97.23
2019-05-14T01:54:38.197Z,97.42
2019-05-14T01:57:04.993Z,97.37
2019-05-14T01:59:32.323Z,97.55
2019-05-14T02:02:02.127Z,97.71
2019-05-14T02:04:28.770Z,98.05
2019-05-14T02:06:55.900Z,98.27
2019-05-14T02:09:22.761Z,98.45
2019-05-14T02:11:51.795Z,98.41
2019-05-14T02:14:18.474Z,98.63
2019-05-14T02:16:45.532Z,98.97
2019-05-14T02:19:12.387Z,98.81
2019-05-14T02:21:39.295Z,98.95
2019-05-14T02:24:06.281Z,99.08
2019-05-14T02:26:33.181Z,99.27
2019-05-14T02:29:02.157Z,99.56
2019-05-14T02:31:29.312Z,99.56
2019-05-14T02:33:58.985Z,99.68
2019-05-14T02:36:25.078Z,99.29
2019-05-14T02:38:51.839Z,99.42
2019-05-14T02:41:19.774Z,99.39
2019-05-14T02:43:49.928Z,99.65
2019-05-14T02:46:55.705Z,99.21
2019-05-14T02:50:40.689Z,99.83
2019-05-14T02:53:10.237Z,100.00
2019-05-14T02:55:38.962Z,100.00
2019-05-14T02:58:05.264Z,99.73
2019-05-14T03:00:32.933Z,99.26
2019-05-14T03:03:00.094Z,99.57
2019-05-14T03:05:29.522Z,99.33
2019-05-14T03:07:55.820Z,98.79
2019-05-14T03:10:22.684Z,98.90
2019-05-14T03:12:50.414Z,99.25
2019-05-14T03:15:20.131Z,98.71
2019-05-14T03:17:49.205Z,98.46
2019-05-14T03:20:15.157Z,99.22
2019-05-14T03:22:55.471Z,99.11
2019-05-14T03:25:11.738Z,98.11
2019-05-14T03:27:40.493Z,98.08
2019-05-14T03:30:12.623Z,98.04
2019-05-14T03:32:41.799Z,98.80
2019-05-14T03:35:05.996Z,99.28
2019-05-14T03:37:34.842Z,99.75
2019-05-14T03:40:01.751Z,99.81
2019-05-14T03:42:29.266Z,99.66
2019-05-14T03:44:59.375Z,98.58
2019-05-14T03:47:25.363Z,98.66
2019-05-14T03:49:52.439Z,98.92
2019-05-14T03:52:20.139Z,98.55
2019-05-14T03:54:49.669Z,97.87
2019-05-14T03:57:15.771Z,96.64
2019-05-14T03:59:42.600Z,97.07
2019-05-14T04:02:09.873Z,96.16
2019-05-14T04:04:39.371Z,96.25
2019-05-14T04:07:09.374Z,95.68
2019-05-14T04:09:35.160Z,96.35
2019-05-14T04:12:02.041Z,96.95
2019-05-14T04:14:30.819Z,97.73
2019-05-14T04:17:09.295Z,96.50
2019-05-14T04:19:31.359Z,96.87
2019-05-14T04:21:59.893Z,97.53
2019-05-14T04:24:29.815Z,96.28
2019-05-14T04:27:07.303Z,96.04
2019-05-14T04:29:30.583Z,96.32
2019-05-14T04:32:00.139Z,96.97
2019-05-14T04:34:30.039Z,96.83
2019-05-14T04:36:59.215Z,96.72
2019-05-14T04:39:25.257Z,96.64
2019-05-14T04:41:52.156Z,95.84
2019-05-14T04:44:19.408Z,96.08
2019-05-14T04:46:49.327Z,94.91
2019-05-14T04:49:15.675Z,94.66
2019-05-14T04:51:43.017Z,93.78
2019-05-14T04:54:10.076Z,93.14
2019-05-14T04:56:39.778Z,93.25
2019-05-14T04:59:10.510Z,92.64
2019-05-14T05:01:39.911Z,92.45
2019-05-14T05:04:09.253Z,92.37
2019-05-14T05:06:34.644Z,91.79
2019-05-14T05:09:01.599Z,91.19
2019-05-14T05:11:29.220Z,91.80
2019-05-14T05:13:58.542Z,89.38
2019-05-14T05:16:25.362Z,89.36
2019-05-14T05:18:52.481Z,87.82
2019-05-14T05:21:19.635Z,90.26
2019-05-14T05:23:49.044Z,89.78
2019-05-14T05:26:18.271Z,88.12
2019-05-14T05:28:58.221Z,88.34
2019-05-14T05:31:13.130Z,87.49
2019-05-14T05:33:39.925Z,85.08
2019-05-14T05:36:09.181Z,84.07
2019-05-14T05:38:35.696Z,82.87
2019-05-14T05:41:02.580Z,82.67
2019-05-14T05:43:29.374Z,83.81
2019-05-14T05:45:56.147Z,83.79
2019-05-14T05:48:23.065Z,85.53
2019-05-14T05:50:50.265Z,86.30
2019-05-14T05:53:19.249Z,84.44
2019-05-14T05:55:48.308Z,82.80
2019-05-14T05:58:14.646Z,82.66
2019-05-14T06:00:41.575Z,82.41
2019-05-14T06:03:10.874Z,82.40
2019-05-14T06:05:38.902Z,81.73
2019-05-14T06:08:08.437Z,81.10
2019-05-14T06:10:34.872Z,81.42
2019-05-14T06:13:01.890Z,80.31
2019-05-14T06:15:43.850Z,80.41
2019-05-14T06:18:11.489Z,80.47
2019-05-14T06:20:28.216Z,80.85
2019-05-14T06:22:55.523Z,79.18
2019-05-14T06:25:22.402Z,79.27
2019-05-14T06:27:49.297Z,79.51
2019-05-14T06:30:45.086Z,81.51
2019-05-14T06:33:11.899Z,80.41
2019-05-14T06:35:39.605Z,80.12
2019-05-14T06:38:08.918Z,78.03
2019-05-14T06:40:35.863Z,76.96
2019-05-14T06:43:03.034Z,75.47
2019-05-14T06:45:30.096Z,74.61
2019-05-14T06:47:59.171Z,73.57
2019-05-14T06:50:28.335Z,72.84
2019-05-14T06:52:54.450Z,74.54
2019-05-14T06:55:21.250Z,73.52
2019-05-14T06:57:48.245Z,72.91
2019-05-14T07:00:15.151Z,72.36
2019-05-14T07:02:44.131Z,71.67
2019-05-14T07:05:10.808Z,72.36
2019-05-14T07:07:40.377Z,72.93
2019-05-14T07:10:08.926Z,72.38
2019-05-14T07:12:35.488Z,73.32
2019-05-14T07:15:02.460Z,73.44
2019-05-14T07:17:29.358Z,74.70
2019-05-14T07:19:58.255Z,71.93
2019-05-14T07:22:24.964Z,71.80
2019-05-14T07:24:51.868Z,72.32
2019-05-14T07:27:19.306Z,71.43
2019-05-14T07:29:46.278Z,71.15
2019-05-14T07:32:13.214Z,71.07
2019-05-14T07:34:40.447Z,69.06
2019-05-14T07:37:09.400Z,67.86
2019-05-14T07:39:38.449Z,67.94
2019-05-14T07:42:05.209Z,67.78
2019-05-14T07:44:31.969Z,66.08
2019-05-14T07:46:59.122Z,63.48
2019-05-14T07:49:26.320Z,61.89
2019-05-14T07:51:53.477Z,60.61
2019-05-14T07:54:20.401Z,61.01
2019-05-14T07:56:50.877Z,58.11
2019-05-14T07:59:17.975Z,59.76
2019-05-14T08:01:45.141Z,56.57
2019-05-14T08:04:12.446Z,56.75
2019-05-14T08:06:39.536Z,56.36
2019-05-14T08:09:08.621Z,57.22
2019-05-14T08:11:35.858Z,58.44
2019-05-14T08:14:02.774Z,54.84
2019-05-14T08:16:29.667Z,55.22
2019-05-14T08:18:56.937Z,55.44
2019-05-14T08:21:23.685Z,55.97
2019-05-14T08:23:50.511Z,54.92
2019-05-14T08:26:19.126Z,56.22
2019-05-14T08:28:48.644Z,55.52
2019-05-14T08:31:15.713Z,54.42
2019-05-14T08:33:43.002Z,53.99
2019-05-14T08:36:09.755Z,57.66
2019-05-14T08:38:38.287Z,53.04
2019-05-14T08:41:05.478Z,50.84
2019-05-14T08:43:33.362Z,50.72
2019-05-14T08:46:00.214Z,49.87
2019-05-14T08:48:29.698Z,49.69
2019-05-14T08:50:56.045Z,50.35
2019-05-14T08:53:22.948Z,49.85
2019-05-14T08:55:50.018Z,50.88
2019-05-14T08:58:20.139Z,50.71
2019-05-14T09:00:48.071Z,49.55
2019-05-14T09:03:14.481Z,46.88
2019-05-14T09:05:41.621Z,45.24
2019-05-14T09:08:09.539Z,46.00
2019-05-14T09:10:36.546Z,44.48
2019-05-14T09:13:03.414Z,44.81
2019-05-14T09:15:30.529Z,45.29
2019-05-14T09:17:58.768Z,46.29
2019-05-14T09:20:26.074Z,43.31
2019-05-14T09:22:53.021Z,44.01
2019-05-14T09:25:19.898Z,42.15
2019-05-14T09:27:49.274Z,42.70
2019-05-14T09:30:18.310Z,43.54
2019-05-14T09:32:44.720Z,42.24
2019-05-14T09:35:11.632Z,46.14
2019-05-14T09:37:39.479Z,44.32
2019-05-14T09:40:08.764Z,43.68
2019-05-14T09:42:38.987Z,41.11
2019-05-14T09:45:04.932Z,38.92
2019-05-14T09:47:31.841Z,40.34
2019-05-14T09:50:15.053Z,38.78
2019-05-14T09:52:29.369Z,40.38
2019-05-14T09:54:58.594Z,34.58
2019-05-14T09:57:25.041Z,35.88
2019-05-14T09:59:52.196Z,35.92
2019-05-14T10:02:19.167Z,38.59
2019-05-14T10:04:49.004Z,38.73
2019-05-14T10:07:15.911Z,41.31
2019-05-14T10:09:43.093Z,42.93
2019-05-14T10:12:09.890Z,42.09
2019-05-14T10:14:39.276Z,41.70
2019-05-14T10:17:05.785Z,40.57
2019-05-14T10:19:32.681Z,36.51
2019-05-14T10:21:59.440Z,37.63
2019-05-14T10:24:26.244Z,32.66
2019-05-14T10:26:53.596Z,35.68
2019-05-14T10:29:20.784Z,34.89
2019-05-14T10:31:48.599Z,36.39
2019-05-14T10:34:15.741Z,39.35
2019-05-14T10:36:42.634Z,35.35
2019-05-14T10:39:09.857Z,33.39
2019-05-14T10:41:38.460Z,35.59
2019-05-14T10:44:05.628Z,37.56
2019-05-14T10:46:32.850Z,39.50
2019-05-14T10:49:14.668Z,39.65
2019-05-14T10:51:28.729Z,40.28
2019-05-14T10:53:59.116Z,39.77
2019-05-14T10:56:25.058Z,41.03
2019-05-14T10:58:51.699Z,42.75
2019-05-14T11:01:22.463Z,40.42
2019-05-14T11:03:48.420Z,38.59
2019-05-14T11:06:18.538Z,36.46
2019-05-14T11:08:45.221Z,37.36
2019-05-14T11:11:12.103Z,33.63
2019-05-14T11:13:44.154Z,34.00
2019-05-14T11:16:11.050Z,34.46
2019-05-14T11:18:39.974Z,33.81
2019-05-14T11:21:19.778Z,34.66
2019-05-14T11:23:38.409Z,34.99
2019-05-14T11:26:04.363Z,36.32
2019-05-14T11:28:31.126Z,38.94
2019-05-14T11:30:57.874Z,35.00
2019-05-14T11:33:25.045Z,34.91
2019-05-14T11:35:52.120Z,37.40
2019-05-14T11:38:32.339Z,33.75
2019-05-14T11:40:49.520Z,35.08
2019-05-14T11:43:16.719Z,31.38
2019-05-14T11:45:43.560Z,30.93
2019-05-14T11:48:10.644Z,31.41
2019-05-14T11:50:37.582Z,32.66
2019-05-14T11:53:05.286Z,31.37
2019-05-14T11:55:32.585Z,32.39
2019-05-14T11:57:59.561Z,32.51
2019-05-14T12:00:29.460Z,34.95
2019-05-14T12:02:58.645Z,34.45
2019-05-14T12:05:26.207Z,31.99
2019-05-14T12:07:53.075Z,33.32
2019-05-14T12:10:20.064Z,32.46
2019-05-14T12:12:48.912Z,32.24
2019-05-14T12:15:18.538Z,33.57
2019-05-14T12:17:44.577Z,30.48
2019-05-14T12:20:11.425Z,28.89
2019-05-14T12:22:39.550Z,32.30
2019-05-14T12:25:08.154Z,29.87
2019-05-14T12:27:35.470Z,32.31
2019-05-14T12:30:02.527Z,30.90
2019-05-14T12:32:29.656Z,30.93
2019-05-14T12:34:59.203Z,32.71
2019-05-14T12:37:25.392Z,33.12
2019-05-14T12:39:52.242Z,32.72
2019-05-14T12:42:19.544Z,32.08
2019-05-14T12:44:48.707Z,33.34
2019-05-14T12:47:15.557Z,29.99
2019-05-14T12:49:42.413Z,32.20
2019-05-14T12:52:21.121Z,31.71
2019-05-14T12:54:38.979Z,30.87
2019-05-14T12:57:05.904Z,31.00
2019-05-14T12:59:32.906Z,31.71
2019-05-14T13:01:59.663Z,30.98
2019-05-14T13:04:28.513Z,32.43
2019-05-14T13:06:55.737Z,31.82
2019-05-14T13:09:22.818Z,32.37
2019-05-14T13:11:49.695Z,31.81
2019-05-14T13:14:16.557Z,31.92
2019-05-14T13:16:43.381Z,32.12
2019-05-14T13:19:10.302Z,31.45
2019-05-14T13:21:39.007Z,31.55
2019-05-14T13:24:05.733Z,31.95
2019-05-14T13:26:32.383Z,31.87
2019-05-14T13:28:59.141Z,32.10
2019-05-14T13:31:29.022Z,30.47
2019-05-14T13:33:54.960Z,30.84
2019-05-14T13:36:21.832Z,30.22
2019-05-14T13:38:49.397Z,29.51
2019-05-14T13:41:19.029Z,30.01
2019-05-14T13:43:45.262Z,30.53
2019-05-14T13:46:15.066Z,31.13
2019-05-14T13:48:43.432Z,32.23
2019-05-14T13:51:09.772Z,31.24
2019-05-14T13:53:38.814Z,31.09
2019-05-14T13:56:05.553Z,31.68
2019-05-14T13:58:32.337Z,30.78
2019-05-14T14:00:59.668Z,31.60
2019-05-14T14:03:29.249Z,31.33
2019-05-14T14:05:59.128Z,31.48
2019-05-14T14:08:24.325Z,31.55
2019-05-14T14:10:53.411Z,29.12
2019-05-14T14:13:20.157Z,30.54
2019-05-14T14:15:48.893Z,30.67
2019-05-14T14:18:15.979Z,31.72
2019-05-14T14:20:42.961Z,30.82
2019-05-14T14:23:21.792Z,31.64
2019-05-14T14:25:39.556Z,30.52
2019-05-14T14:28:09.960Z,29.34
2019-05-14T14:30:35.969Z,30.48
2019-05-14T14:33:03.128Z,28.05
2019-05-14T14:35:30.545Z,29.60
2019-05-14T14:37:59.157Z,27.91
2019-05-14T14:40:25.938Z,28.30
2019-05-14T14:42:52.745Z,29.44
2019-05-14T14:45:22.425Z,28.96
2019-05-14T14:47:49.845Z,29.50
2019-05-14T14:50:19.317Z,29.76
2019-05-14T14:52:45.511Z,31.99
2019-05-14T14:55:12.381Z,30.08
2019-05-14T14:57:44.965Z,29.30
2019-05-14T15:00:10.153Z,29.25
2019-05-14T15:02:40.792Z,29.20
2019-05-14T15:05:13.302Z,31.47
2019-05-14T15:07:35.352Z,28.85
2019-05-14T15:10:02.106Z,29.94
2019-05-14T15:12:29.268Z,29.69
2019-05-14T15:14:59.252Z,30.06
2019-05-14T15:17:25.219Z,29.73
2019-05-14T15:19:52.954Z,30.30
2019-05-14T15:22:21.127Z,30.41
2019-05-14T15:24:48.818Z,29.22
2019-05-14T15:27:18.739Z,31.14
2019-05-14T15:29:45.168Z,32.25
2019-05-14T15:32:12.103Z,31.88
2019-05-14T15:34:38.859Z,30.89
2019-05-14T15:37:08.752Z,32.21
2019-05-14T15:39:34.482Z,32.83
2019-05-14T15:42:05.079Z,32.36
2019-05-14T15:44:46.824Z,32.14
2019-05-14T15:46:58.836Z,30.61
2019-05-14T15:49:28.190Z,26.51
2019-05-14T15:51:54.664Z,24.30
2019-05-14T15:54:36.129Z,22.96
2019-05-14T15:56:50.206Z,23.44
2019-05-14T15:59:19.138Z,25.29
2019-05-14T16:01:45.985Z,25.26
2019-05-14T16:04:12.987Z,26.74
2019-05-14T16:06:39.854Z,27.90
2019-05-14T16:09:06.700Z,28.02
2019-05-14T16:11:33.506Z,29.69
2019-05-14T16:14:00.367Z,29.23
2019-05-14T16:16:28.981Z,28.93
2019-05-14T16:18:55.809Z,29.20
2019-05-14T16:21:23.998Z,29.71
2019-05-14T16:23:51.580Z,30.38
2019-05-14T16:26:18.883Z,30.41
2019-05-14T16:28:46.554Z,30.90
2019-05-14T16:31:13.628Z,32.07
2019-05-14T16:33:40.943Z,32.63
2019-05-14T16:36:08.862Z,31.63
2019-05-14T16:38:36.215Z,33.67
2019-05-14T16:41:03.072Z,33.96
2019-05-14T16:43:32.377Z,33.20
2019-05-14T16:45:59.794Z,33.79
2019-05-14T16:48:28.872Z,34.48
2019-05-14T16:50:55.400Z,34.70
2019-05-14T16:53:22.252Z,34.28
2019-05-14T16:55:49.338Z,34.27
2019-05-14T16:58:19.202Z,35.08
2019-05-14T17:00:44.746Z,34.43
2019-05-14T17:03:11.639Z,35.33
2019-05-14T17:05:38.418Z,35.18
2019-05-14T17:08:05.171Z,34.68
2019-05-14T17:10:31.963Z,36.28
2019-05-14T17:13:01.780Z,34.72
2019-05-14T17:15:28.774Z,37.19
2019-05-14T17:17:55.741Z,36.65
2019-05-14T17:20:24.357Z,36.63
2019-05-14T17:22:51.277Z,37.70
2019-05-14T17:25:26.589Z,37.28
2019-05-14T17:27:48.637Z,38.08
2019-05-14T17:30:18.174Z,39.39
2019-05-14T17:32:44.510Z,37.50
2019-05-14T17:35:11.256Z,38.72
2019-05-14T17:37:39.520Z,38.28
2019-05-14T17:40:09.133Z,38.65
2019-05-14T17:42:35.464Z,37.56
2019-05-14T17:45:02.796Z,37.45
2019-05-14T17:47:30.529Z,37.66
2019-05-14T17:49:59.052Z,37.78
2019-05-14T17:52:25.957Z,38.02
2019-05-14T17:54:52.749Z,39.48
2019-05-14T17:57:24.969Z,39.03
2019-05-14T17:59:49.593Z,38.59
2019-05-14T18:02:18.946Z,38.66
2019-05-14T18:04:45.512Z,38.71
2019-05-14T18:07:12.428Z,39.83
2019-05-14T18:09:39.159Z,38.54
2019-05-14T18:12:08.030Z,39.24
2019-05-14T18:14:34.731Z,39.35
2019-05-14T18:17:01.677Z,39.84
2019-05-14T18:19:29.115Z,40.34
2019-05-14T18:21:55.991Z,40.51
2019-05-14T18:24:23.953Z,40.95
2019-05-14T18:26:50.717Z,41.07
2019-05-14T18:29:18.905Z,40.95
2019-05-14T18:31:51.369Z,40.90
2019-05-14T18:34:15.257Z,40.42
2019-05-14T18:36:42.056Z,40.79
2019-05-14T18:39:09.406Z,40.57
2019-05-14T18:41:38.747Z,42.95
2019-05-14T18:44:04.990Z,40.64
2019-05-14T18:46:33.020Z,42.92
2019-05-14T18:48:59.988Z,42.48
2019-05-14T18:51:28.770Z,44.91
2019-05-14T18:53:58.280Z,43.67
2019-05-14T18:56:24.973Z,43.05
2019-05-14T18:58:51.762Z,42.32
2019-05-14T19:01:19.563Z,42.93
2019-05-14T19:03:49.203Z,42.03
2019-05-14T19:06:15.642Z,47.48
2019-05-14T19:08:42.400Z,48.94
2019-05-14T19:11:10.092Z,48.61
2019-05-14T19:13:38.963Z,47.44
2019-05-14T19:16:08.218Z,49.76
2019-05-14T19:18:34.797Z,52.34
2019-05-14T19:21:01.719Z,47.80
2019-05-14T19:23:29.010Z,47.50
2019-05-14T19:25:56.363Z,51.11
2019-05-14T19:28:23.268Z,46.32
2019-05-14T19:30:50.045Z,49.71
2019-05-14T19:33:20.612Z,49.13
2019-05-14T19:35:48.377Z,48.34
2019-05-14T19:38:15.038Z,51.91
2019-05-14T19:40:53.938Z,52.80
2019-05-14T19:43:20.991Z,49.96
2019-05-14T19:45:48.628Z,50.37
2019-05-14T19:48:15.968Z,52.64
2019-05-14T19:50:43.328Z,51.84
2019-05-14T19:53:10.583Z,51.44
2019-05-14T19:55:39.203Z,49.13
2019-05-14T19:58:06.177Z,48.79
2019-05-14T20:00:33.058Z,49.83
2019-05-14T20:02:59.982Z,47.11
2019-05-14T20:05:28.673Z,46.37
2019-05-14T20:07:57.975Z,48.32
2019-05-14T20:10:24.489Z,50.33
2019-05-14T20:12:51.349Z,53.77
2019-05-14T20:15:18.318Z,52.47
2019-05-14T20:17:45.208Z,54.51
2019-05-14T20:20:12.152Z,54.38
2019-05-14T20:22:39.895Z,53.17
2019-05-14T20:25:07.207Z,52.86
2019-05-14T20:27:34.084Z,52.07
2019-05-14T20:30:00.952Z,55.01
2019-05-14T20:32:27.894Z,54.22
2019-05-14T20:34:54.798Z,54.73
2019-05-14T20:37:21.573Z,54.01
2019-05-14T20:39:48.579Z,53.51
2019-05-14T20:42:15.403Z,55.41
2019-05-14T20:44:44.252Z,54.27
2019-05-14T20:47:11.022Z,55.53
2019-05-14T20:49:38.227Z,55.94
2019-05-14T20:52:05.126Z,57.76
2019-05-14T20:54:31.886Z,53.54
2019-05-14T20:56:59.074Z,51.80
2019-05-14T20:59:28.126Z,56.12
2019-05-14T21:01:54.670Z,53.10
2019-05-14T21:04:21.732Z,53.24
2019-05-14T21:06:48.795Z,52.42
2019-05-14T21:09:15.797Z,52.90
2019-05-14T21:11:43.688Z,53.25
2019-05-14T21:14:10.559Z,53.90
2019-05-14T21:16:39.182Z,55.77
2019-05-14T21:19:08.458Z,53.94
2019-05-14T21:21:34.989Z,51.75
2019-05-14T21:24:01.855Z,52.40
2019-05-14T21:26:34.817Z,54.15
2019-05-14T21:29:01.735Z,53.87
2019-05-14T21:31:28.649Z,53.23
2019-05-14T21:33:55.428Z,52.61
2019-05-14T21:36:22.241Z,57.26
2019-05-14T21:38:49.313Z,54.42
2019-05-14T21:41:20.117Z,53.84
2019-05-14T21:43:45.161Z,54.97
2019-05-14T21:46:11.931Z,57.10
2019-05-14T21:48:39.167Z,55.30
2019-05-14T21:51:08.547Z,56.94
2019-05-14T21:53:34.867Z,62.08
2019-05-14T21:56:01.775Z,58.91
2019-05-14T21:58:29.263Z,60.99
2019-05-14T22:00:59.044Z,61.74
2019-05-14T22:03:25.406Z,62.60
2019-05-14T22:05:52.492Z,61.84
2019-05-14T22:08:19.248Z,61.84
2019-05-14T22:10:48.708Z,61.39
2019-05-14T22:13:15.096Z,60.78
2019-05-14T22:15:41.853Z,63.85
2019-05-14T22:18:16.938Z,57.21
2019-05-14T22:20:38.607Z,60.41
2019-05-14T22:23:05.670Z,59.31
2019-05-14T22:25:32.443Z,58.94
2019-05-14T22:28:11.130Z,57.36
2019-05-14T22:30:29.023Z,58.43
2019-05-14T22:33:00.420Z,61.98
2019-05-14T22:35:24.744Z,61.64
2019-05-14T22:37:51.685Z,61.87
2019-05-14T22:40:18.684Z,60.48
2019-05-14T22:42:45.573Z,59.77
2019-05-14T22:45:12.574Z,58.53
2019-05-14T22:47:40.406Z,59.53
2019-05-14T22:50:08.962Z,57.61
2019-05-14T22:52:38.520Z,58.70
2019-05-14T22:55:05.031Z,58.92
2019-05-14T22:57:31.835Z,62.40
2019-05-14T22:59:58.693Z,59.73
2019-05-14T23:02:25.610Z,60.64
2019-05-14T23:04:52.346Z,58.11
2019-05-14T23:07:19.251Z,59.81
2019-05-14T23:09:48.250Z,62.00
2019-05-14T23:12:15.166Z,62.16
2019-05-14T23:14:42.597Z,62.08
2019-05-14T23:17:10.565Z,63.91
2019-05-14T23:19:37.684Z,61.60
2019-05-14T23:22:04.538Z,61.45
2019-05-14T23:24:31.295Z,60.31
2019-05-14T23:26:58.565Z,61.21
2019-05-14T23:29:25.774Z,63.33
2019-05-14T23:31:53.563Z,64.39
2019-05-14T23:34:20.630Z,64.95
2019-05-14T23:36:48.289Z,64.65
2019-05-14T23:39:15.403Z,64.10
2019-05-14T23:41:42.297Z,64.96
2019-05-14T23:44:09.158Z,64.79
2019-05-14T23:46:35.984Z,66.12
2019-05-14T23:49:03.390Z,65.24
2019-05-14T23:51:30.162Z,64.32
2019-05-14T23:53:56.938Z,65.91
2019-05-14T23:56:23.704Z,67.50
2019-05-14T23:58:55.701Z,65.74
